Time;durP1;ratioP1;P1;durP2;ratioP2;P2;SDS_P1;SDS_P2;PMS_P1;PMS_P2;Temp;Humidity;BMP_temperature;BMP_pressure;BME280_temperature;BME280_humidity;BME280_pressure;Samples;Min_cycle;Max_cycle;Signal;HPM_P1;HPM_P2
2022/01/17 00:01:53;;;;;;;;;;;0.30;80.90;;;;;;5029320;28;86856;-41
2022/01/17 00:04:20;;;;;;;;;;;0.30;80.90;;;;;;5025756;28;89045;-41
2022/01/17 00:06:46;;;;;;;;;;;0.20;81.00;;;;;;5026930;28;86386;-40
2022/01/17 00:09:12;;;;;;;;;;;0.30;81.10;;;;;;5026476;28;87984;-41
2022/01/17 00:11:42;;;;;;;;;;;0.30;80.90;;;;;;5025736;28;88900;-40
2022/01/17 00:14:12;;;;;;;;;;;0.30;81.00;;;;;;5025545;28;87834;-41
2022/01/17 00:16:47;;;;;;;;;;;0.20;81.00;;;;;;5026186;28;89903;-40
2022/01/17 00:21:44;;;;;;;;;;;0.30;80.90;;;;;;5027114;28;86892;-41
2022/01/17 00:24:09;;;;;;;;;;;0.30;80.90;;;;;;5025533;28;89915;-40
2022/01/17 00:26:35;;;;;;;;;;;0.30;80.90;;;;;;5025796;28;87148;-40
2022/01/17 00:29:00;;;;;;;;;;;0.30;80.90;;;;;;5025957;28;89046;-41
2022/01/17 00:31:26;;;;;;;;;;;0.30;80.80;;;;;;5025666;28;89048;-41
2022/01/17 00:33:52;;;;;;;;;;;0.30;80.90;;;;;;5025861;28;87263;-41
2022/01/17 00:36:17;;;;;;;;;;;0.30;80.90;;;;;;5025964;28;87346;-40
2022/01/17 00:38:43;;;;;;;;;;;0.20;80.80;;;;;;5024764;28;90417;-40
2022/01/17 00:41:08;;;;;;;;;;;0.30;80.80;;;;;;5025103;28;87138;-41
2022/01/17 00:43:35;;;;;;;;;;;0.20;80.80;;;;;;5028417;28;87843;-41
2022/01/17 00:46:00;;;;;;;;;;;0.20;80.90;;;;;;5025438;28;87166;-41
2022/01/17 00:48:26;;;;;;;;;;;0.20;80.90;;;;;;5025482;28;88122;-40
2022/01/17 00:50:51;;;;;;;;;;;0.20;81.00;;;;;;5025465;28;87974;-41
2022/01/17 00:53:17;;;;;;;;;;;0.20;80.90;;;;;;5025609;28;87081;-40
2022/01/17 00:55:43;;;;;;;;;;;0.20;81.00;;;;;;5026051;28;88875;-41
2022/01/17 00:58:08;;;;;;;;;;;0.20;80.90;;;;;;5024921;28;88094;-40
2022/01/17 01:00:34;;;;;;;;;;;0.20;80.80;;;;;;5025368;28;87208;-41
2022/01/17 01:03:00;;;;;;;;;;;0.20;80.70;;;;;;5024531;28;89044;-41
2022/01/17 01:05:26;;;;;;;;;;;0.20;80.80;;;;;;5028050;28;87982;-41
2022/01/17 01:07:53;;;;;;;;;;;0.20;80.90;;;;;;5025188;28;88781;-40
2022/01/17 01:10:19;;;;;;;;;;;0.20;80.90;;;;;;5024961;28;89473;-40
2022/01/17 01:12:46;;;;;;;;;;;0.20;80.80;;;;;;5025255;28;87296;-41
2022/01/17 01:15:22;;;;;;;;;;;0.20;80.90;;;;;;5025300;28;89000;-41
2022/01/17 01:21:01;;;;;;;;;;;0.20;81.00;;;;;;5025951;28;86077;-40
2022/01/17 01:28:32;;;;;;;;;;;0.20;81.00;;;;;;5025302;28;87835;-41
2022/01/17 01:30:59;;;;;;;;;;;0.20;80.80;;;;;;5024452;28;89883;-41
2022/01/17 01:33:32;;;;;;;;;;;0.20;80.90;;;;;;5024767;28;87153;-40
2022/01/17 01:36:03;;;;;;;;;;;0.20;80.80;;;;;;5025152;28;87511;-41
2022/01/17 01:38:29;;;;;;;;;;;0.20;80.90;;;;;;5024240;28;89555;-41
2022/01/17 01:40:54;;;;;;;;;;;0.20;80.80;;;;;;5024205;28;90271;-40
2022/01/17 01:43:20;;;;;;;;;;;0.20;80.80;;;;;;5024787;28;88820;-41
2022/01/17 01:45:47;;;;;;;;;;;0.10;80.90;;;;;;5024909;28;88787;-41
2022/01/17 01:48:12;;;;;;;;;;;0.10;80.90;;;;;;5024594;28;87129;-40
2022/01/17 01:50:38;;;;;;;;;;;0.10;80.90;;;;;;5027148;28;89303;-41
2022/01/17 01:53:04;;;;;;;;;;;0.20;80.80;;;;;;5023844;28;88259;-40
2022/01/17 01:55:30;;;;;;;;;;;0.20;80.90;;;;;;5024732;28;88126;-41
2022/01/17 01:57:56;;;;;;;;;;;0.10;80.80;;;;;;5023524;28;89230;-41
2022/01/17 02:00:22;;;;;;;;;;;0.20;80.70;;;;;;5024412;28;87125;-41
2022/01/17 02:02:47;;;;;;;;;;;0.10;80.70;;;;;;5024335;28;88766;-41
2022/01/17 02:05:13;;;;;;;;;;;0.10;80.80;;;;;;5024171;28;89439;-40
2022/01/17 02:07:41;;;;;;;;;;;0.10;80.80;;;;;;5024463;28;87133;-40
2022/01/17 02:10:07;;;;;;;;;;;0.10;80.80;;;;;;5027528;28;88874;-41
2022/01/17 02:12:33;;;;;;;;;;;0.10;80.70;;;;;;5024316;28;87114;-41
2022/01/17 02:14:58;;;;;;;;;;;0.10;80.70;;;;;;5024415;28;88626;-40
2022/01/17 02:17:25;;;;;;;;;;;0.10;80.70;;;;;;5023015;28;90217;-40
2022/01/17 02:19:56;;;;;;;;;;;0.10;80.50;;;;;;5024198;28;87261;-41
2022/01/17 02:22:22;;;;;;;;;;;0.10;80.50;;;;;;5023974;28;87750;-40
2022/01/17 02:24:47;;;;;;;;;;;0.10;80.60;;;;;;5023677;28;89495;-40
2022/01/17 02:27:13;;;;;;;;;;;0.00;80.60;;;;;;5024153;28;87204;-40
2022/01/17 02:29:38;;;;;;;;;;;0.00;80.70;;;;;;5023981;28;88774;-40
2022/01/17 02:32:04;;;;;;;;;;;0.00;80.60;;;;;;5026646;28;89267;-41
2022/01/17 02:34:30;;;;;;;;;;;0.00;80.50;;;;;;5024643;28;87926;-40
2022/01/17 02:36:55;;;;;;;;;;;0.10;80.10;;;;;;5023369;28;89372;-40
2022/01/17 02:39:21;;;;;;;;;;;0.00;80.20;;;;;;5024013;28;86836;-41
2022/01/17 02:41:49;;;;;;;;;;;0.00;80.40;;;;;;5022818;28;88923;-41
2022/01/17 02:44:15;;;;;;;;;;;0.00;80.30;;;;;;5023294;28;89458;-41
2022/01/17 02:46:40;;;;;;;;;;;0.00;80.30;;;;;;5023741;28;87167;-41
2022/01/17 02:49:06;;;;;;;;;;;0.00;80.30;;;;;;5023655;28;88639;-41
2022/01/17 02:51:32;;;;;;;;;;;0.00;80.30;;;;;;5023172;28;89500;-40
2022/01/17 02:53:58;;;;;;;;;;;0.00;80.50;;;;;;5026596;28;87142;-41
2022/01/17 02:56:24;;;;;;;;;;;0.00;80.50;;;;;;5023335;28;88664;-41
2022/01/17 02:58:49;;;;;;;;;;;0.00;80.40;;;;;;5024051;28;86465;-41
2022/01/17 03:01:16;;;;;;;;;;;0.00;80.50;;;;;;5023698;28;87135;-41
2022/01/17 03:03:42;;;;;;;;;;;0.00;80.50;;;;;;5023330;28;88050;-41
2022/01/17 03:06:08;;;;;;;;;;;0.00;80.30;;;;;;5022759;28;88154;-40
2022/01/17 03:08:34;;;;;;;;;;;-0.10;80.50;;;;;;5023503;28;89663;-41
2022/01/17 03:11:02;;;;;;;;;;;0.00;80.60;;;;;;5021038;28;91292;-41
2022/01/17 03:13:32;;;;;;;;;;;0.00;80.40;;;;;;5023433;28;87214;-40
2022/01/17 03:15:59;;;;;;;;;;;-0.10;80.30;;;;;;5025826;28;88887;-41
2022/01/17 03:18:29;;;;;;;;;;;0.00;80.30;;;;;;5023246;28;87164;-40
2022/01/17 03:20:55;;;;;;;;;;;-0.10;80.10;;;;;;5023092;28;87478;-41
2022/01/17 03:23:21;;;;;;;;;;;-0.10;80.00;;;;;;5023452;28;88910;-41
2022/01/17 03:25:46;;;;;;;;;;;-0.10;80.10;;;;;;5023276;28;87123;-41
2022/01/17 03:28:12;;;;;;;;;;;-0.10;80.00;;;;;;5023392;28;87364;-41
2022/01/17 03:30:37;;;;;;;;;;;-0.10;80.00;;;;;;5022151;28;90125;-41
2022/01/17 03:33:05;;;;;;;;;;;-0.10;80.00;;;;;;5023461;28;87079;-41
2022/01/17 03:35:31;;;;;;;;;;;-0.10;80.10;;;;;;5022873;28;88886;-40
2022/01/17 03:37:56;;;;;;;;;;;-0.10;80.00;;;;;;5025619;28;88330;-40
2022/01/17 03:40:22;;;;;;;;;;;-0.10;80.10;;;;;;5023325;28;89194;-41
2022/01/17 03:42:47;;;;;;;;;;;-0.10;80.00;;;;;;5022565;28;89175;-41
2022/01/17 03:45:13;;;;;;;;;;;-0.10;80.10;;;;;;5023066;28;87156;-41
2022/01/17 03:47:40;;;;;;;;;;;-0.20;80.00;;;;;;5023433;28;89066;-41
2022/01/17 03:50:07;;;;;;;;;;;-0.10;80.00;;;;;;5022731;28;88129;-41
2022/01/17 03:52:32;;;;;;;;;;;-0.20;80.00;;;;;;5022889;28;86817;-40
2022/01/17 03:54:58;;;;;;;;;;;-0.20;80.00;;;;;;5022368;28;89041;-41
2022/01/17 03:57:24;;;;;;;;;;;-0.10;80.00;;;;;;5022490;28;89857;-41
2022/01/17 03:59:49;;;;;;;;;;;-0.10;80.00;;;;;;5025831;28;87131;-41
2022/01/17 04:02:15;;;;;;;;;;;-0.20;80.00;;;;;;5022434;28;89467;-41
2022/01/17 04:04:40;;;;;;;;;;;-0.20;80.00;;;;;;5021470;28;87269;-41
2022/01/17 04:07:06;;;;;;;;;;;-0.20;79.90;;;;;;5022539;28;88728;-41
2022/01/17 04:09:31;;;;;;;;;;;-0.20;80.20;;;;;;5022315;28;89945;-41
2022/01/17 04:11:57;;;;;;;;;;;-0.20;80.00;;;;;;5022990;28;86367;-41
2022/01/17 04:14:22;;;;;;;;;;;-0.20;80.10;;;;;;5023141;28;86868;-41
2022/01/17 04:16:48;;;;;;;;;;;-0.30;79.90;;;;;;5022172;28;89583;-41
2022/01/17 04:19:13;;;;;;;;;;;-0.20;80.00;;;;;;5024880;28;87784;-41
2022/01/17 04:21:39;;;;;;;;;;;-0.20;80.00;;;;;;5023578;28;89025;-41
2022/01/17 04:24:05;;;;;;;;;;;-0.20;80.00;;;;;;5025894;28;87121;-41
2022/01/17 04:26:30;;;;;;;;;;;-0.20;79.90;;;;;;5025827;28;88767;-41
2022/01/17 04:28:56;;;;;;;;;;;-0.20;79.80;;;;;;5025394;28;89819;-41
2022/01/17 04:31:21;;;;;;;;;;;-0.20;79.80;;;;;;5025863;28;87204;-41
2022/01/17 04:33:47;;;;;;;;;;;-0.20;79.80;;;;;;5025918;28;89404;-41
2022/01/17 04:36:13;;;;;;;;;;;-0.30;79.80;;;;;;5025838;28;88748;-41
2022/01/17 04:38:38;;;;;;;;;;;-0.30;79.80;;;;;;5025753;28;86973;-41
2022/01/17 04:41:12;;;;;;;;;;;-0.30;79.80;;;;;;5027851;28;88803;-41
2022/01/17 04:46:05;;;;;;;;;;;-0.30;79.80;;;;;;5025855;28;88481;-41
2022/01/17 04:48:31;;;;;;;;;;;-0.30;79.80;;;;;;5025161;28;89072;-41
2022/01/17 04:50:58;;;;;;;;;;;-0.30;79.80;;;;;;5025759;28;87107;-41
2022/01/17 04:53:25;;;;;;;;;;;-0.30;79.80;;;;;;5025439;28;88813;-41
2022/01/17 04:55:50;;;;;;;;;;;-0.30;79.90;;;;;;5025102;28;89659;-41
2022/01/17 04:58:16;;;;;;;;;;;-0.30;79.70;;;;;;5025256;28;87243;-40
2022/01/17 05:00:46;;;;;;;;;;;-0.30;79.70;;;;;;5025870;28;88634;-41
2022/01/17 05:03:12;;;;;;;;;;;-0.40;79.80;;;;;;5027903;28;89412;-41
2022/01/17 05:05:38;;;;;;;;;;;-0.40;79.90;;;;;;5025275;28;88936;-41
2022/01/17 05:08:03;;;;;;;;;;;-0.40;79.90;;;;;;5024213;28;90899;-41
2022/01/17 05:10:29;;;;;;;;;;;-0.40;79.90;;;;;;5025175;28;87088;-41
2022/01/17 05:12:55;;;;;;;;;;;-0.30;79.90;;;;;;5025368;28;88936;-41
2022/01/17 05:15:32;;;;;;;;;;;-0.40;79.90;;;;;;5024939;28;88204;-41
2022/01/17 05:20:36;;;;;;;;;;;-0.40;79.80;;;;;;5022838;28;87368;-40
2022/01/17 05:23:01;;;;;;;;;;;-0.40;79.80;;;;;;5024669;28;89489;-40
2022/01/17 05:25:27;;;;;;;;;;;-0.40;79.90;;;;;;5028517;28;86492;-40
2022/01/17 05:27:52;;;;;;;;;;;-0.40;79.80;;;;;;5024674;28;89838;-40
2022/01/17 05:30:19;;;;;;;;;;;-0.40;79.80;;;;;;5025221;28;87120;-41
2022/01/17 05:32:45;;;;;;;;;;;-0.40;79.70;;;;;;5023407;28;89314;-41
2022/01/17 05:35:11;;;;;;;;;;;-0.40;79.60;;;;;;5024454;28;89367;-41
2022/01/17 05:37:37;;;;;;;;;;;-0.40;79.70;;;;;;5024656;28;87210;-41
2022/01/17 05:40:03;;;;;;;;;;;-0.40;79.50;;;;;;5024622;28;87818;-40
2022/01/17 05:42:29;;;;;;;;;;;-0.50;79.50;;;;;;5023932;28;89606;-40
2022/01/17 05:44:54;;;;;;;;;;;-0.40;79.70;;;;;;5024718;28;87175;-40
2022/01/17 05:47:20;;;;;;;;;;;-0.40;79.60;;;;;;5027351;28;87539;-41
2022/01/17 05:49:46;;;;;;;;;;;-0.40;79.60;;;;;;5025279;28;86424;-40
2022/01/17 05:52:11;;;;;;;;;;;-0.50;79.70;;;;;;5024627;28;88034;-40
2022/01/17 05:54:37;;;;;;;;;;;-0.50;79.70;;;;;;5024175;28;89370;-41
2022/01/17 05:57:03;;;;;;;;;;;-0.50;79.70;;;;;;5023937;28;88056;-41
2022/01/17 05:59:29;;;;;;;;;;;-0.50;79.60;;;;;;5024436;28;89662;-41
2022/01/17 06:01:54;;;;;;;;;;;-0.50;79.70;;;;;;5023744;28;88677;-40
2022/01/17 06:04:20;;;;;;;;;;;-0.50;79.60;;;;;;5024538;28;87070;-41
2022/01/17 06:06:46;;;;;;;;;;;-0.50;79.60;;;;;;5024310;28;88975;-41
2022/01/17 06:09:12;;;;;;;;;;;-0.50;79.60;;;;;;5026775;28;89546;-41
2022/01/17 06:11:37;;;;;;;;;;;-0.50;79.70;;;;;;5024503;28;87413;-41
2022/01/17 06:14:04;;;;;;;;;;;-0.50;79.80;;;;;;5024363;28;88773;-41
2022/01/17 06:16:30;;;;;;;;;;;-0.50;79.60;;;;;;5024108;28;87167;-40
2022/01/17 06:18:56;;;;;;;;;;;-0.50;79.60;;;;;;5024074;28;88968;-40
2022/01/17 06:21:21;;;;;;;;;;;-0.60;79.80;;;;;;5023329;28;90460;-41
2022/01/17 06:23:47;;;;;;;;;;;-0.60;79.70;;;;;;5024304;28;87132;-41
2022/01/17 06:26:13;;;;;;;;;;;-0.60;79.70;;;;;;5023979;28;88732;-41
2022/01/17 06:28:38;;;;;;;;;;;-0.60;79.60;;;;;;5026708;28;88013;-40
2022/01/17 06:31:04;;;;;;;;;;;-0.50;79.60;;;;;;5023972;28;88725;-41
2022/01/17 06:33:30;;;;;;;;;;;-0.60;79.50;;;;;;5023642;28;89328;-41
2022/01/17 06:35:55;;;;;;;;;;;-0.60;79.70;;;;;;5024304;28;87149;-41
2022/01/17 06:38:21;;;;;;;;;;;-0.60;79.70;;;;;;5024586;28;87524;-40
2022/01/17 06:40:46;;;;;;;;;;;-0.60;79.60;;;;;;5023221;28;89513;-41
2022/01/17 06:43:12;;;;;;;;;;;-0.60;79.70;;;;;;5023806;28;86914;-41
2022/01/17 06:45:38;;;;;;;;;;;-0.60;79.60;;;;;;5022997;28;89166;-40
2022/01/17 06:48:05;;;;;;;;;;;-0.60;79.50;;;;;;5023270;28;89520;-40
2022/01/17 06:50:34;;;;;;;;;;;-0.60;79.60;;;;;;5026777;28;87117;-40
2022/01/17 06:52:59;;;;;;;;;;;-0.60;79.30;;;;;;5023329;28;89575;-41
2022/01/17 06:55:25;;;;;;;;;;;-0.60;79.50;;;;;;5023689;28;87179;-41
2022/01/17 06:57:50;;;;;;;;;;;-0.60;79.60;;;;;;5023742;28;87566;-41
2022/01/17 07:00:16;;;;;;;;;;;-0.60;79.40;;;;;;5023099;28;89409;-41
2022/01/17 07:02:42;;;;;;;;;;;-0.60;79.30;;;;;;5024124;28;86443;-40
2022/01/17 07:05:07;;;;;;;;;;;-0.60;79.40;;;;;;5023621;28;87076;-41
2022/01/17 07:07:33;;;;;;;;;;;-0.60;79.40;;;;;;5023168;28;89369;-41
2022/01/17 07:09:59;;;;;;;;;;;-0.60;79.20;;;;;;5022919;28;88109;-40
2022/01/17 07:12:24;;;;;;;;;;;-0.60;79.40;;;;;;5025963;28;89835;-41
2022/01/17 07:14:50;;;;;;;;;;;-0.60;79.20;;;;;;5023477;28;87233;-41
2022/01/17 07:17:15;;;;;;;;;;;-0.60;79.20;;;;;;5023541;28;87948;-40
2022/01/17 07:19:41;;;;;;;;;;;-0.60;79.30;;;;;;5023025;28;89336;-41
2022/01/17 07:22:07;;;;;;;;;;;-0.60;79.10;;;;;;5023279;28;87046;-41
2022/01/17 07:24:34;;;;;;;;;;;-0.60;79.20;;;;;;5023142;28;89260;-40
2022/01/17 07:26:59;;;;;;;;;;;-0.60;79.20;;;;;;5023454;28;89083;-41
2022/01/17 07:29:26;;;;;;;;;;;-0.60;79.30;;;;;;5023219;28;87124;-41
2022/01/17 07:31:52;;;;;;;;;;;-0.60;79.20;;;;;;5022901;28;88766;-41
2022/01/17 07:34:17;;;;;;;;;;;-0.60;79.20;;;;;;5025267;28;89776;-41
2022/01/17 07:36:43;;;;;;;;;;;-0.60;79.20;;;;;;5023231;28;90219;-41
2022/01/17 07:39:09;;;;;;;;;;;-0.60;79.30;;;;;;5022788;28;88817;-41
2022/01/17 07:41:35;;;;;;;;;;;-0.60;79.30;;;;;;5022694;28;87085;-41
2022/01/17 07:44:02;;;;;;;;;;;-0.70;79.20;;;;;;5023403;28;87561;-41
2022/01/17 07:46:47;;;;;;;;;;;-0.60;79.20;;;;;;5022843;28;88109;-41
2022/01/17 07:49:19;;;;;;;;;;;-0.70;79.30;;;;;;5023327;28;86963;-41
2022/01/17 07:51:46;;;;;;;;;;;-0.60;79.30;;;;;;5023587;28;88725;-41
2022/01/17 07:54:15;;;;;;;;;;;-0.60;79.30;;;;;;5022449;28;89480;-40
2022/01/17 07:56:41;;;;;;;;;;;-0.70;79.30;;;;;;5027206;28;87239;-40
2022/01/17 07:59:08;;;;;;;;;;;-0.70;79.40;;;;;;5025288;28;90361;-41
2022/01/17 08:01:34;;;;;;;;;;;-0.70;79.30;;;;;;5026250;28;86907;-41
2022/01/17 08:04:00;;;;;;;;;;;-0.60;79.40;;;;;;5026526;28;88786;-41
2022/01/17 08:06:25;;;;;;;;;;;-0.70;79.40;;;;;;5026117;28;88037;-41
2022/01/17 08:08:51;;;;;;;;;;;-0.70;79.40;;;;;;5026292;28;87227;-41
2022/01/17 08:11:17;;;;;;;;;;;-0.60;79.40;;;;;;5026277;28;88602;-40
2022/01/17 08:13:43;;;;;;;;;;;-0.60;79.30;;;;;;5025689;28;89389;-41
2022/01/17 08:16:08;;;;;;;;;;;-0.70;79.40;;;;;;5026863;28;86407;-41
2022/01/17 08:18:34;;;;;;;;;;;-0.70;79.50;;;;;;5028931;28;87460;-40
2022/01/17 08:20:59;;;;;;;;;;;-0.70;79.40;;;;;;5026180;28;87119;-41
2022/01/17 08:23:25;;;;;;;;;;;-0.70;79.40;;;;;;5025479;28;88713;-41
2022/01/17 08:25:51;;;;;;;;;;;-0.70;79.40;;;;;;5025511;28;89748;-41
2022/01/17 08:28:16;;;;;;;;;;;-0.60;79.50;;;;;;5025760;28;87120;-41
2022/01/17 08:30:42;;;;;;;;;;;-0.70;79.50;;;;;;5025919;28;88724;-41
2022/01/17 08:33:08;;;;;;;;;;;-0.70;79.70;;;;;;5025836;28;86795;-40
2022/01/17 08:35:33;;;;;;;;;;;-0.70;79.60;;;;;;5025840;28;87089;-40
2022/01/17 08:37:59;;;;;;;;;;;-0.70;79.70;;;;;;5028245;28;88152;-41
2022/01/17 08:40:25;;;;;;;;;;;-0.70;79.70;;;;;;5026283;28;86348;-41
2022/01/17 08:42:50;;;;;;;;;;;-0.70;79.70;;;;;;5025417;28;88268;-40
2022/01/17 08:45:16;;;;;;;;;;;-0.70;79.60;;;;;;5025416;28;89481;-40
2022/01/17 08:47:46;;;;;;;;;;;-0.60;79.50;;;;;;5025176;28;88171;-41
2022/01/17 08:50:12;;;;;;;;;;;-0.70;80.20;;;;;;5025663;28;90004;-41
2022/01/17 08:52:37;;;;;;;;;;;-0.70;79.70;;;;;;5025226;28;89613;-41
2022/01/17 08:55:03;;;;;;;;;;;-0.70;79.80;;;;;;5025511;28;87132;-41
2022/01/17 08:57:29;;;;;;;;;;;-0.70;79.80;;;;;;5025188;28;89168;-41
2022/01/17 08:59:54;;;;;;;;;;;-0.70;79.90;;;;;;5027927;28;90035;-41
2022/01/17 09:02:20;;;;;;;;;;;-0.60;79.70;;;;;;5025629;28;89601;-41
2022/01/17 09:04:46;;;;;;;;;;;-0.70;79.60;;;;;;5025691;28;89354;-41
2022/01/17 09:07:13;;;;;;;;;;;-0.60;79.60;;;;;;5024734;28;87121;-41
2022/01/17 09:09:39;;;;;;;;;;;-0.60;79.60;;;;;;5024539;28;88811;-41
2022/01/17 09:12:06;;;;;;;;;;;-0.60;79.70;;;;;;5024035;28;90716;-41
2022/01/17 09:14:32;;;;;;;;;;;-0.60;79.50;;;;;;5025131;28;86975;-41
2022/01/17 09:16:57;;;;;;;;;;;-0.60;79.60;;;;;;5025213;28;88899;-41
2022/01/17 09:19:23;;;;;;;;;;;-0.60;79.60;;;;;;5024961;28;87914;-41
2022/01/17 09:21:48;;;;;;;;;;;-0.70;80.00;;;;;;5027941;28;87187;-41
2022/01/17 09:24:14;;;;;;;;;;;-0.60;79.80;;;;;;5024727;28;89700;-41
2022/01/17 09:26:39;;;;;;;;;;;-0.60;79.60;;;;;;5024987;28;87120;-41
2022/01/17 09:29:05;;;;;;;;;;;-0.60;79.60;;;;;;5025595;28;88778;-40
2022/01/17 09:31:31;;;;;;;;;;;-0.60;79.70;;;;;;5024665;28;89652;-41
2022/01/17 09:33:56;;;;;;;;;;;-0.70;79.80;;;;;;5025041;28;87128;-41
2022/01/17 09:36:24;;;;;;;;;;;-0.70;80.00;;;;;;5024384;28;89029;-41
2022/01/17 09:38:50;;;;;;;;;;;-0.70;80.00;;;;;;5023155;28;91239;-41
2022/01/17 09:41:15;;;;;;;;;;;-0.70;80.10;;;;;;5024351;28;87435;-41
2022/01/17 09:43:41;;;;;;;;;;;-0.70;80.10;;;;;;5027306;28;88795;-41
2022/01/17 09:46:07;;;;;;;;;;;-0.70;80.00;;;;;;5025015;28;87157;-41
2022/01/17 09:48:37;;;;;;;;;;;-0.60;79.90;;;;;;5024811;28;89130;-41
2022/01/17 09:51:37;;;;;;;;;;;-0.70;79.70;;;;;;5024542;28;89707;-41
2022/01/17 09:54:03;;;;;;;;;;;-0.70;80.30;;;;;;5024919;28;86347;-41
2022/01/17 09:56:29;;;;;;;;;;;-0.70;80.30;;;;;;5024810;28;88317;-41
2022/01/17 09:58:55;;;;;;;;;;;-0.70;80.10;;;;;;5024182;28;88949;-41
2022/01/17 10:01:20;;;;;;;;;;;-0.60;79.90;;;;;;5023991;28;87920;-41
2022/01/17 10:03:46;;;;;;;;;;;-0.50;79.80;;;;;;5024676;28;89724;-41
2022/01/17 10:06:12;;;;;;;;;;;-0.70;80.10;;;;;;5027073;28;89594;-40
2022/01/17 10:08:37;;;;;;;;;;;-0.60;79.80;;;;;;5024073;28;88817;-41
2022/01/17 10:11:12;;;;;;;;;;;-0.70;80.20;;;;;;5024185;28;89471;-40
2022/01/17 10:13:39;;;;;;;;;;;-0.70;80.40;;;;;;5024410;28;86878;-40
2022/01/17 10:16:09;;;;;;;;;;;-0.70;80.40;;;;;;5024160;28;88637;-40
2022/01/17 10:18:39;;;;;;;;;;;-0.70;80.40;;;;;;5024029;28;88903;-40
2022/01/17 10:21:11;;;;;;;;;;;-0.60;80.80;;;;;;5023929;28;87148;-40
2022/01/17 10:26:36;;;;;;;;;;;-0.60;80.90;;;;;;5021292;28;89170;-40
2022/01/17 10:35:09;;;;;;;;;;;-0.50;81.50;;;;;;5023060;28;86883;-40
2022/01/17 10:37:35;;;;;;;;;;;-0.50;81.20;;;;;;5023858;28;89457;-41
2022/01/17 10:40:06;;;;;;;;;;;-0.50;82.10;;;;;;5023364;28;89221;-41
2022/01/17 10:42:34;;;;;;;;;;;-0.60;82.50;;;;;;5023746;28;87106;-41
2022/01/17 10:45:04;;;;;;;;;;;-0.60;82.40;;;;;;5024490;28;88227;-41
2022/01/17 10:47:30;;;;;;;;;;;-0.50;81.80;;;;;;5023679;28;89959;-41
2022/01/17 10:49:57;;;;;;;;;;;-0.40;81.50;;;;;;5026835;28;87122;-41
2022/01/17 10:52:27;;;;;;;;;;;-0.40;82.00;;;;;;5022647;28;90196;-41
2022/01/17 10:54:56;;;;;;;;;;;-0.40;82.10;;;;;;5023552;28;87080;-41
2022/01/17 10:57:22;;;;;;;;;;;-0.40;82.20;;;;;;5023847;28;86966;-41
2022/01/17 10:59:51;;;;;;;;;;;-0.30;81.70;;;;;;5023152;28;88779;-41
2022/01/17 11:02:17;;;;;;;;;;;-0.40;81.70;;;;;;5023521;28;87200;-41
2022/01/17 11:04:42;;;;;;;;;;;-0.30;82.10;;;;;;5023657;28;88916;-41
2022/01/17 11:07:08;;;;;;;;;;;-0.30;81.70;;;;;;5022883;28;89836;-41
2022/01/17 11:09:41;;;;;;;;;;;-0.30;81.70;;;;;;5023969;28;86488;-41
2022/01/17 11:12:10;;;;;;;;;;;-0.30;81.50;;;;;;5026163;28;88100;-41
2022/01/17 11:14:36;;;;;;;;;;;-0.30;81.80;;;;;;5023651;28;87197;-41
2022/01/17 11:17:09;;;;;;;;;;;-0.30;81.70;;;;;;5022729;28;89447;-41
2022/01/17 11:22:19;;;;;;;;;;;-0.30;81.80;;;;;;5023566;28;86712;-41
2022/01/17 11:24:46;;;;;;;;;;;-0.30;81.80;;;;;;5023676;28;87331;-41
2022/01/17 11:27:11;;;;;;;;;;;-0.20;82.40;;;;;;5023193;28;87276;-41
2022/01/17 11:29:37;;;;;;;;;;;-0.30;81.70;;;;;;5023548;28;87136;-41
2022/01/17 11:32:03;;;;;;;;;;;-0.20;82.40;;;;;;5025185;28;88995;-42
2022/01/17 11:34:29;;;;;;;;;;;-0.20;82.00;;;;;;5029906;28;88810;-41
2022/01/17 11:36:54;;;;;;;;;;;-0.20;82.20;;;;;;5026860;28;87343;-42
2022/01/17 11:39:20;;;;;;;;;;;-0.20;81.80;;;;;;5026163;28;89400;-42
2022/01/17 11:41:49;;;;;;;;;;;-0.20;81.80;;;;;;5025802;28;88163;-42
2022/01/17 11:44:14;;;;;;;;;;;-0.20;81.90;;;;;;5027039;28;88368;-42
2022/01/17 11:46:50;;;;;;;;;;;-0.20;81.70;;;;;;5026373;28;89481;-41
2022/01/17 11:49:31;;;;;;;;;;;-0.20;82.10;;;;;;5026721;28;86993;-42
2022/01/17 11:51:57;;;;;;;;;;;-0.20;82.40;;;;;;5026624;28;87877;-42
2022/01/17 11:54:24;;;;;;;;;;;-0.10;81.90;;;;;;5026138;28;89327;-42
2022/01/17 11:56:54;;;;;;;;;;;-0.10;81.50;;;;;;5029265;28;87115;-42
2022/01/17 11:59:29;;;;;;;;;;;-0.10;81.40;;;;;;5026197;28;89359;-42
2022/01/17 12:02:12;;;;;;;;;;;-0.10;81.70;;;;;;5026710;28;87111;-42
2022/01/17 12:04:38;;;;;;;;;;;0.00;81.40;;;;;;5026338;28;88661;-42
2022/01/17 12:07:03;;;;;;;;;;;0.00;81.70;;;;;;5025543;28;89020;-42
2022/01/17 12:09:29;;;;;;;;;;;0.00;82.10;;;;;;5026150;28;87133;-42
2022/01/17 12:12:07;;;;;;;;;;;0.00;81.60;;;;;;5025981;28;88725;-42
2022/01/17 12:14:34;;;;;;;;;;;0.00;81.90;;;;;;5025964;28;89659;-42
2022/01/17 12:17:18;;;;;;;;;;;0.00;81.80;;;;;;5026024;28;87136;-42
2022/01/17 12:20:02;;;;;;;;;;;0.00;82.00;;;;;;5028646;28;88869;-42
2022/01/17 12:22:28;;;;;;;;;;;0.10;82.40;;;;;;5025934;28;87221;-42
2022/01/17 12:24:53;;;;;;;;;;;0.10;82.10;;;;;;5026622;28;88996;-42
2022/01/17 12:27:20;;;;;;;;;;;0.10;81.70;;;;;;5025638;28;89758;-42
2022/01/17 12:30:15;;;;;;;;;;;0.10;82.10;;;;;;5025892;28;87099;-42
2022/01/17 12:32:45;;;;;;;;;;;0.10;81.30;;;;;;5028400;28;88866;-42
2022/01/17 12:35:11;;;;;;;;;;;0.10;81.40;;;;;;5025595;28;89216;-42
2022/01/17 12:37:43;;;;;;;;;;;0.10;81.50;;;;;;5025892;28;87253;-42
2022/01/17 12:40:11;;;;;;;;;;;0.10;81.60;;;;;;5028261;28;88807;-42
2022/01/17 12:42:49;;;;;;;;;;;0.10;81.20;;;;;;5025123;28;87102;-42
2022/01/17 12:45:22;;;;;;;;;;;0.20;81.50;;;;;;5025714;28;88905;-42
2022/01/17 12:47:48;;;;;;;;;;;0.20;81.70;;;;;;5025201;28;89664;-42
2022/01/17 12:50:14;;;;;;;;;;;0.20;81.30;;;;;;5026373;28;86410;-42
2022/01/17 12:52:39;;;;;;;;;;;0.20;81.30;;;;;;5025553;28;88072;-42
2022/01/17 12:55:05;;;;;;;;;;;0.20;81.60;;;;;;5025239;28;89698;-42
2022/01/17 12:57:31;;;;;;;;;;;0.20;81.30;;;;;;5024878;28;88184;-42
2022/01/17 12:59:56;;;;;;;;;;;0.20;80.80;;;;;;5025370;28;89864;-42
2022/01/17 13:02:22;;;;;;;;;;;0.30;81.00;;;;;;5028220;28;88389;-42
2022/01/17 13:04:49;;;;;;;;;;;0.30;81.40;;;;;;5025486;28;88842;-42
2022/01/17 13:07:14;;;;;;;;;;;0.30;81.40;;;;;;5025094;28;89135;-42
2022/01/17 13:09:40;;;;;;;;;;;0.30;81.00;;;;;;5025446;28;87033;-42
2022/01/17 13:12:07;;;;;;;;;;;0.30;81.20;;;;;;5025367;28;87920;-42
2022/01/17 13:14:33;;;;;;;;;;;0.30;81.30;;;;;;5025328;28;88855;-42
2022/01/17 13:16:59;;;;;;;;;;;0.30;81.10;;;;;;5025186;28;87116;-42
2022/01/17 13:19:25;;;;;;;;;;;0.30;81.00;;;;;;5025357;28;87455;-42
2022/01/17 13:21:51;;;;;;;;;;;0.30;80.90;;;;;;5024204;28;89414;-42
2022/01/17 13:26:58;;;;;;;;;;;0.40;81.20;;;;;;5024448;28;87995;-42
2022/01/17 13:29:25;;;;;;;;;;;0.40;81.10;;;;;;5025162;28;87137;-42
2022/01/17 13:31:51;;;;;;;;;;;0.40;81.70;;;;;;5025186;28;88715;-42
2022/01/17 13:34:17;;;;;;;;;;;0.30;82.00;;;;;;5024758;28;88144;-42
2022/01/17 13:36:43;;;;;;;;;;;0.30;81.80;;;;;;5024897;28;87124;-42
2022/01/17 13:39:09;;;;;;;;;;;0.40;81.70;;;;;;5025392;28;87781;-42
2022/01/17 13:41:35;;;;;;;;;;;0.40;81.90;;;;;;5023763;28;89293;-42
2022/01/17 13:44:01;;;;;;;;;;;0.40;81.80;;;;;;5024704;28;87173;-42
2022/01/17 13:46:27;;;;;;;;;;;0.40;81.60;;;;;;5026757;28;87843;-42
2022/01/17 13:48:53;;;;;;;;;;;0.40;81.30;;;;;;5024833;28;87172;-42
2022/01/17 13:51:23;;;;;;;;;;;0.40;81.40;;;;;;5024791;28;88353;-42
2022/01/17 13:53:49;;;;;;;;;;;0.40;81.30;;;;;;5023568;28;89388;-42
2022/01/17 13:56:14;;;;;;;;;;;0.50;81.20;;;;;;5024511;28;87099;-42
2022/01/17 13:58:41;;;;;;;;;;;0.50;81.10;;;;;;5024326;28;89263;-42
2022/01/17 14:01:10;;;;;;;;;;;0.50;81.10;;;;;;5024320;28;90896;-42
2022/01/17 14:03:39;;;;;;;;;;;0.50;81.00;;;;;;5025204;28;86420;-42
2022/01/17 14:06:15;;;;;;;;;;;0.50;81.10;;;;;;5024635;28;88098;-42
2022/01/17 14:08:53;;;;;;;;;;;0.50;80.90;;;;;;5027005;28;89194;-42
2022/01/17 14:11:23;;;;;;;;;;;0.50;80.80;;;;;;5024122;28;89097;-43
2022/01/17 14:13:52;;;;;;;;;;;0.60;80.80;;;;;;5024109;28;89973;-42
2022/01/17 14:16:17;;;;;;;;;;;0.60;80.80;;;;;;5024315;28;87180;-42
2022/01/17 14:18:44;;;;;;;;;;;0.60;80.90;;;;;;5024327;28;89437;-43
2022/01/17 14:21:19;;;;;;;;;;;0.60;80.90;;;;;;5023742;28;89803;-43
2022/01/17 14:23:45;;;;;;;;;;;0.60;80.90;;;;;;5024164;28;86873;-42
2022/01/17 14:26:23;;;;;;;;;;;0.60;80.90;;;;;;5024297;28;87429;-42
2022/01/17 14:28:49;;;;;;;;;;;0.60;80.90;;;;;;5024207;28;89358;-43
2022/01/17 14:31:15;;;;;;;;;;;0.70;81.00;;;;;;5026889;28;87168;-42
2022/01/17 14:33:42;;;;;;;;;;;0.70;81.10;;;;;;5023654;28;88388;-43
2022/01/17 14:36:11;;;;;;;;;;;0.70;81.00;;;;;;5023189;28;88066;-43
2022/01/17 14:38:41;;;;;;;;;;;0.70;80.90;;;;;;5024029;28;88894;-42
2022/01/17 14:41:07;;;;;;;;;;;0.70;80.90;;;;;;5022971;28;89979;-43
2022/01/17 14:43:34;;;;;;;;;;;0.70;80.90;;;;;;5023907;28;87048;-43
2022/01/17 14:46:06;;;;;;;;;;;0.70;81.10;;;;;;5023901;28;88520;-43
2022/01/17 14:48:39;;;;;;;;;;;0.70;81.10;;;;;;5023357;28;90030;-43
2022/01/17 14:51:16;;;;;;;;;;;0.70;81.00;;;;;;5027277;28;87088;-43